createdAt,value
2018-08-09T00:00:05.155Z,59.1
2018-08-09T00:15:04.875Z,59.4
2018-08-09T00:30:05.280Z,60
2018-08-09T00:45:04.749Z,60.4
2018-08-09T01:00:04.831Z,60.9
2018-08-09T01:15:04.949Z,61.7
2018-08-09T01:30:04.962Z,62
2018-08-09T01:45:05.117Z,62.5
2018-08-09T02:00:04.652Z,62.7
2018-08-09T02:15:05.310Z,63.1
2018-08-09T02:30:05.096Z,63.4
2018-08-09T02:45:05.623Z,63.4
2018-08-09T03:00:04.659Z,63.4
2018-08-09T03:15:05.613Z,63.8
2018-08-09T03:30:04.952Z,63.9
2018-08-09T03:45:04.641Z,64.4
2018-08-09T04:00:05.069Z,64.6
2018-08-09T04:15:10.528Z,64.8
2018-08-09T04:30:04.654Z,65
2018-08-09T04:45:04.610Z,65
2018-08-09T05:00:04.571Z,65.5
2018-08-09T05:15:05.005Z,65.1
2018-08-09T05:30:05.560Z,65.6
2018-08-09T05:45:05.083Z,65.7
2018-08-09T06:00:05.071Z,65.4
2018-08-09T06:15:05.038Z,65.8
2018-08-09T06:30:05.070Z,66.1
2018-08-09T06:45:04.994Z,65.9
2018-08-09T07:00:05.187Z,66.2
2018-08-09T07:15:05.190Z,65.9
2018-08-09T07:30:04.364Z,65.4
2018-08-09T07:45:04.747Z,65
2018-08-09T08:00:05.297Z,63.7
2018-08-09T08:15:05.292Z,70.3
2018-08-09T08:30:05.066Z,64.1
2018-08-09T08:45:04.417Z,52.7
2018-08-09T09:00:05.115Z,49
2018-08-09T09:15:04.574Z,48.6
2018-08-09T09:30:04.713Z,43
2018-08-09T09:45:04.600Z,42
2018-08-09T10:00:05.282Z,43.5
2018-08-09T10:15:05.273Z,45.6
2018-08-09T10:30:04.969Z,45.5
2018-08-09T10:45:04.331Z,46.1
2018-08-09T11:00:04.276Z,46.5
2018-08-09T11:15:04.939Z,46.7
2018-08-09T11:30:05.104Z,46.5
2018-08-09T11:45:05.077Z,48.1
2018-08-09T12:00:04.936Z,49.6
2018-08-09T12:15:05.036Z,48.4
2018-08-09T12:30:05.045Z,49.2
2018-08-09T12:45:05.034Z,50
2018-08-09T13:00:05.119Z,50.7
2018-08-09T13:15:04.354Z,48.3
2018-08-09T13:30:04.932Z,48
2018-08-09T13:45:04.384Z,47.2
2018-08-09T14:15:05.247Z,47.8
2018-08-09T14:30:04.966Z,46.8
2018-08-09T14:45:04.802Z,45.8
2018-08-09T15:00:04.748Z,46.5
2018-08-09T15:15:05.052Z,49
2018-08-09T15:30:05.126Z,52.3
2018-08-09T15:45:04.736Z,55.7
2018-08-09T16:00:04.697Z,58.1
2018-08-09T16:15:05.421Z,58.4
2018-08-09T16:30:04.905Z,61.1
2018-08-09T16:45:04.515Z,62.1
2018-08-09T17:00:04.494Z,61.5
2018-08-09T17:15:05.087Z,61.8
2018-08-09T17:30:05.832Z,62.7
2018-08-09T17:45:05.101Z,63.3
2018-08-09T18:00:04.865Z,64.2
2018-08-09T18:15:04.648Z,64.8
2018-08-09T18:30:04.424Z,65.2
2018-08-09T18:45:04.815Z,65.5
2018-08-09T19:00:04.324Z,66
2018-08-09T19:15:04.766Z,66.5
2018-08-09T19:30:05.122Z,66.7
2018-08-09T19:45:09.544Z,66.9
2018-08-09T20:00:04.728Z,67.3
2018-08-09T20:15:15.731Z,66.9
2018-08-09T20:30:04.927Z,66.7
2018-08-09T20:45:04.667Z,66.7
2018-08-09T21:00:05.057Z,66.8
2018-08-09T21:15:05.205Z,66.9
2018-08-09T21:30:04.656Z,67.1
2018-08-09T21:45:11.422Z,67.6
2018-08-09T22:00:05.177Z,67.9
2018-08-09T22:15:04.939Z,68
2018-08-09T22:30:05.321Z,68
2018-08-09T22:45:04.927Z,68.3
2018-08-09T23:00:05.049Z,68.4
2018-08-09T23:15:05.117Z,68.8
2018-08-09T23:30:04.851Z,68.9
2018-08-09T23:45:04.602Z,68
